Van Horn, Texas
Current Conditions -  °F | °C
As of 2:35 PM on Sunday 25 Jan 2015 (Local Time) from KMRF Reporting Station
Clear Clear  
Wind Chill: 12°   Ceiling: Unl
Heat Index: 12°   Visibility: 10mi
Dew Point: -3°   Wind: 7mph
Humidity: 35%   Direction: 100°E
Pressure: 30.28"   Gusts: NA
Location:  31.04°N, 104.83°W
Report Text: KMRF 252035Z AUTO 10006KT 10SM CLR 12/M03 A3028 RMK AO1
Loading
Personal Weather Stations






























Interactive Weather Map New forecast layout! Learn more

10-Day Weather Forecast

Advertisements
Track Severe Weather on mobile